Time;durP1;ratioP1;P1;durP2;ratioP2;P2;SDS_P1;SDS_P2;PMS_P1;PMS_P2;Temp;Humidity;BMP_temperature;BMP_pressure;BME280_temperature;BME280_humidity;BME280_pressure;Samples;Min_cycle;Max_cycle;Signal;HPM_P1;HPM_P2
2021/03/24 00:01:38;;;;;;;27.97;14.33;;;5.20;99.90;;;;;;5078641;28;20433;-80
2021/03/24 00:04:04;;;;;;;29.60;15.47;;;5.30;99.90;;;;;;5078414;28;20187;-81
2021/03/24 00:06:31;;;;;;;25.80;17.03;;;5.30;99.90;;;;;;5083480;28;20909;-80
2021/03/24 00:08:57;;;;;;;26.30;15.93;;;5.30;99.90;;;;;;5084844;28;20458;-81
2021/03/24 00:11:23;;;;;;;28.27;13.80;;;5.30;99.90;;;;;;5078962;28;20375;-81
2021/03/24 00:13:49;;;;;;;36.80;14.50;;;5.30;99.90;;;;;;5079011;28;20758;-81
2021/03/24 00:16:16;;;;;;;26.57;16.07;;;5.40;99.90;;;;;;5078574;28;20588;-81
2021/03/24 00:18:42;;;;;;;29.33;17.10;;;5.50;99.90;;;;;;5078468;28;20412;-81
2021/03/24 00:21:08;;;;;;;30.77;17.23;;;5.50;99.90;;;;;;5079114;28;20488;-81
2021/03/24 00:23:34;;;;;;;39.00;18.73;;;5.80;99.90;;;;;;5077703;28;20215;-81
2021/03/24 00:26:00;;;;;;;31.63;18.47;;;6.00;99.90;;;;;;5077177;28;20386;-81
2021/03/24 00:28:26;;;;;;;41.17;21.37;;;6.10;99.90;;;;;;5078516;28;20168;-80
2021/03/24 00:30:52;;;;;;;33.40;17.37;;;6.20;99.90;;;;;;5078420;28;20397;-81
2021/03/24 00:33:22;;;;;;;30.90;17.90;;;6.30;99.90;;;;;;5079218;28;20452;-80
2021/03/24 00:35:48;;;;;;;34.60;19.80;;;6.30;99.90;;;;;;5077483;28;20220;-81
2021/03/24 00:38:16;;;;;;;33.83;15.40;;;6.30;99.90;;;;;;5078559;28;20493;-81
2021/03/24 00:40:45;;;;;;;33.50;17.83;;;6.30;99.90;;;;;;5078318;28;20417;-81
2021/03/24 00:43:12;;;;;;;26.90;16.33;;;6.30;99.90;;;;;;5078162;28;20462;-80
2021/03/24 00:45:39;;;;;;;29.93;16.47;;;6.30;99.90;;;;;;5076944;28;20394;-81
2021/03/24 00:48:07;;;;;;;30.97;18.17;;;6.30;99.90;;;;;;5078833;28;20398;-80
2021/03/24 00:50:34;;;;;;;34.03;17.60;;;6.30;99.90;;;;;;5078434;28;20451;-81
2021/03/24 00:53:00;;;;;;;31.40;17.67;;;6.30;99.90;;;;;;5078900;28;20458;-81
2021/03/24 00:55:26;;;;;;;32.93;18.33;;;6.30;99.90;;;;;;5078329;28;20763;-81
2021/03/24 00:57:52;;;;;;;26.27;16.70;;;6.30;99.90;;;;;;5078998;28;20458;-81
2021/03/24 01:00:22;;;;;;;33.70;19.83;;;6.30;99.90;;;;;;5078045;28;20163;-81
2021/03/24 01:02:48;;;;;;;33.67;17.50;;;6.40;99.90;;;;;;5077002;28;20412;-81
2021/03/24 01:05:18;;;;;;;31.33;17.60;;;6.30;99.90;;;;;;5078288;28;20402;-81
2021/03/24 01:07:46;;;;;;;37.67;18.40;;;6.40;99.90;;;;;;5078790;28;20487;-80
2021/03/24 01:10:17;;;;;;;32.47;17.50;;;6.40;99.90;;;;;;5081924;28;20418;-79
2021/03/24 01:12:45;;;;;;;30.10;17.50;;;6.40;99.90;;;;;;5086190;28;20373;-79
2021/03/24 01:15:11;;;;;;;33.53;18.53;;;6.30;99.90;;;;;;5084038;28;20376;-78
2021/03/24 01:17:37;;;;;;;36.20;18.50;;;6.30;99.90;;;;;;5084792;28;20380;-78
2021/03/24 01:20:04;;;;;;;33.07;18.53;;;6.20;99.90;;;;;;5087286;28;20410;-78
2021/03/24 01:22:30;;;;;;;29.10;15.83;;;6.00;99.90;;;;;;5088314;28;20178;-79
2021/03/24 01:24:58;;;;;;;30.13;15.67;;;5.90;99.90;;;;;;5088081;28;20511;-80
2021/03/24 01:27:27;;;;;;;30.40;17.83;;;5.70;99.90;;;;;;5087512;28;20156;-80
2021/03/24 01:29:53;;;;;;;31.87;16.40;;;5.70;99.90;;;;;;5084003;28;20380;-81
2021/03/24 01:32:19;;;;;;;28.60;15.80;;;5.60;99.90;;;;;;5081219;28;20364;-81
2021/03/24 01:34:45;;;;;;;33.40;16.83;;;5.60;99.90;;;;;;5080349;28;20208;-81
2021/03/24 01:37:10;;;;;;;32.47;16.80;;;5.50;99.90;;;;;;5079842;28;20163;-81
2021/03/24 01:39:37;;;;;;;28.87;17.70;;;5.50;99.90;;;;;;5081014;28;20163;-81
2021/03/24 01:42:03;;;;;;;27.67;15.00;;;5.50;99.90;;;;;;5079792;28;20223;-80
2021/03/24 01:44:29;;;;;;;36.37;19.50;;;5.40;99.90;;;;;;5080717;28;20476;-80
2021/03/24 01:46:55;;;;;;;30.50;18.87;;;5.30;99.90;;;;;;5080864;28;20401;-81
2021/03/24 01:49:36;;;;;;;26.27;16.60;;;5.40;99.90;;;;;;5079267;28;20174;-81
2021/03/24 01:52:06;;;;;;;38.10;17.07;;;5.40;99.90;;;;;;5080708;28;20237;-81
2021/03/24 01:54:37;;;;;;;31.10;17.10;;;5.50;99.90;;;;;;5081369;28;20463;-81
2021/03/24 01:57:09;;;;;;;30.00;17.27;;;5.60;99.90;;;;;;5081159;28;20406;-81
2021/03/24 01:59:36;;;;;;;33.20;19.17;;;5.50;99.90;;;;;;5081368;28;20890;-81
2021/03/24 02:02:08;;;;;;;30.17;19.60;;;5.50;99.90;;;;;;5081131;28;20491;-81
2021/03/24 02:04:34;;;;;;;29.03;18.03;;;5.60;99.90;;;;;;5086760;28;20442;-79
2021/03/24 02:07:14;;;;;;;39.77;19.00;;;5.50;99.90;;;;;;5088138;28;20405;-79
2021/03/24 02:09:49;;;;;;;25.77;14.80;;;5.50;99.90;;;;;;5089460;28;20167;-78
2021/03/24 02:12:27;;;;;;;41.30;17.63;;;5.30;99.90;;;;;;5087505;28;20368;-79
2021/03/24 02:14:57;;;;;;;27.13;16.53;;;5.40;99.90;;;;;;5089272;28;20873;-79
2021/03/24 02:17:28;;;;;;;27.07;15.90;;;5.40;99.90;;;;;;5088699;28;20485;-80
2021/03/24 02:20:29;;;;;;;24.00;14.63;;;5.30;99.90;;;;;;5087423;28;20430;-80
2021/03/24 02:23:08;;;;;;;37.47;14.80;;;5.30;99.90;;;;;;5086545;28;20470;-81
2021/03/24 02:26:11;;;;;;;25.67;16.67;;;5.40;99.90;;;;;;5069199;28;20409;-79
2021/03/24 02:28:40;;;;;;;28.10;15.83;;;5.40;99.90;;;;;;5072417;28;20376;-78
2021/03/24 02:31:07;;;;;;;33.87;15.87;;;5.50;99.90;;;;;;5079603;28;20401;-80
2021/03/24 02:33:38;;;;;;;33.80;19.40;;;5.40;99.90;;;;;;5077348;28;20480;-80
2021/03/24 02:36:07;;;;;;;31.17;17.87;;;5.30;99.90;;;;;;5078276;28;20436;-81
2021/03/24 02:38:36;;;;;;;29.63;16.00;;;5.40;99.90;;;;;;5077354;28;20421;-81
2021/03/24 02:41:03;;;;;;;25.47;15.37;;;5.30;99.90;;;;;;5078548;28;20463;-81
2021/03/24 02:43:31;;;;;;;24.73;17.10;;;5.40;99.90;;;;;;5077354;28;20529;-80
2021/03/24 02:46:00;;;;;;;29.40;18.60;;;5.30;99.90;;;;;;5077944;28;20427;-81
2021/03/24 02:48:31;;;;;;;23.53;15.77;;;5.30;99.90;;;;;;5077565;28;20743;-80
2021/03/24 02:51:00;;;;;;;30.73;15.17;;;5.30;99.90;;;;;;5077639;28;20555;-80
2021/03/24 02:53:29;;;;;;;30.50;16.40;;;5.40;99.90;;;;;;5079641;28;20387;-79
2021/03/24 02:55:58;;;;;;;27.20;17.90;;;5.40;99.90;;;;;;5087148;28;20477;-79
2021/03/24 02:58:24;;;;;;;31.33;18.33;;;5.50;99.90;;;;;;5088556;28;20376;-79
2021/03/24 03:00:50;;;;;;;31.33;16.00;;;5.50;99.90;;;;;;5087357;28;20372;-79
2021/03/24 03:03:25;;;;;;;30.20;16.60;;;5.60;99.90;;;;;;5087620;28;20441;-79
2021/03/24 03:05:54;;;;;;;32.27;16.33;;;5.70;99.90;;;;;;5083903;28;20167;-81
2021/03/24 03:08:28;;;;;;;30.20;15.30;;;5.60;99.90;;;;;;5081447;28;20849;-81
2021/03/24 03:11:24;;;;;;;27.97;17.07;;;5.50;99.90;;;;;;5080865;28;20394;-81
2021/03/24 03:13:54;;;;;;;25.17;15.13;;;5.50;99.90;;;;;;5081006;28;20551;-81
2021/03/24 03:16:30;;;;;;;33.27;17.60;;;5.50;99.90;;;;;;5080496;28;20412;-81
2021/03/24 03:19:15;;;;;;;21.40;14.23;;;5.50;99.90;;;;;;5080315;28;20908;-81
2021/03/24 03:21:46;;;;;;;33.70;17.20;;;5.40;99.90;;;;;;5079934;28;20438;-81
2021/03/24 03:24:13;;;;;;;29.60;16.80;;;5.40;99.90;;;;;;5080204;28;20521;-81
2021/03/24 03:26:41;;;;;;;32.17;16.00;;;5.40;99.90;;;;;;5080280;28;20433;-81
2021/03/24 03:29:14;;;;;;;30.97;16.23;;;5.50;99.90;;;;;;5079573;28;20496;-81
2021/03/24 03:31:42;;;;;;;30.53;15.73;;;5.40;99.90;;;;;;5078888;28;20369;-80
2021/03/24 03:34:13;;;;;;;33.30;18.20;;;5.40;99.90;;;;;;5079955;28;20462;-81
2021/03/24 03:36:45;;;;;;;21.53;13.40;;;5.40;99.90;;;;;;5079928;28;20398;-81
2021/03/24 03:39:15;;;;;;;33.60;16.20;;;5.50;99.90;;;;;;5079876;28;20402;-81
2021/03/24 03:41:41;;;;;;;20.90;14.77;;;5.50;99.90;;;;;;5078888;28;20402;-81
2021/03/24 03:44:08;;;;;;;39.70;19.17;;;5.40;99.90;;;;;;5079008;28;20433;-81
2021/03/24 03:46:39;;;;;;;26.00;14.60;;;5.40;99.90;;;;;;5079552;28;20369;-80
2021/03/24 03:49:05;;;;;;;29.03;18.50;;;5.40;99.90;;;;;;5079086;28;20409;-81
2021/03/24 03:51:42;;;;;;;28.07;16.57;;;5.30;99.90;;;;;;5080169;28;20398;-81
2021/03/24 03:54:20;;;;;;;31.20;16.40;;;5.20;99.90;;;;;;5079976;28;20401;-81
2021/03/24 03:56:56;;;;;;;29.33;18.50;;;5.20;99.90;;;;;;5079876;28;20453;-81
2021/03/24 03:59:29;;;;;;;28.90;16.10;;;5.10;99.90;;;;;;5079173;28;20877;-81
2021/03/24 04:02:01;;;;;;;28.43;15.50;;;5.00;99.90;;;;;;5078983;28;20380;-81
2021/03/24 04:04:36;;;;;;;25.83;17.63;;;5.10;99.90;;;;;;5077814;28;20447;-80
2021/03/24 04:07:09;;;;;;;29.97;15.40;;;5.20;99.90;;;;;;5078987;28;20364;-81
2021/03/24 04:09:38;;;;;;;23.60;14.23;;;5.20;99.90;;;;;;5078811;28;20364;-80
2021/03/24 04:12:08;;;;;;;35.37;18.80;;;5.10;99.90;;;;;;5078876;28;20390;-80
2021/03/24 04:14:35;;;;;;;23.33;14.20;;;5.20;99.90;;;;;;5078675;28;20402;-79
2021/03/24 04:17:04;;;;;;;32.83;18.20;;;5.00;99.90;;;;;;5079739;28;20397;-78
2021/03/24 04:19:35;;;;;;;32.93;19.73;;;5.20;99.90;;;;;;5083560;28;20364;-79
2021/03/24 04:22:02;;;;;;;31.87;16.83;;;5.40;99.90;;;;;;5078665;28;20418;-80
2021/03/24 04:24:33;;;;;;;26.13;15.33;;;5.30;99.90;;;;;;5078193;28;20437;-80
2021/03/24 04:27:02;;;;;;;44.23;17.90;;;5.30;99.90;;;;;;5077800;28;20400;-80
2021/03/24 04:29:37;;;;;;;32.20;17.77;;;5.20;99.90;;;;;;5076772;28;20920;-80
2021/03/24 04:32:05;;;;;;;31.07;18.30;;;5.10;99.90;;;;;;5078242;28;20368;-80
2021/03/24 04:34:32;;;;;;;29.50;17.70;;;5.00;99.90;;;;;;5078347;28;20404;-81
2021/03/24 04:37:18;;;;;;;27.10;16.40;;;5.20;99.90;;;;;;5078591;28;20394;-80
2021/03/24 04:39:51;;;;;;;38.37;17.50;;;5.10;99.90;;;;;;5078280;28;20377;-81
2021/03/24 04:42:23;;;;;;;28.83;16.53;;;5.10;99.90;;;;;;5078090;28;20424;-81
2021/03/24 04:44:54;;;;;;;29.77;15.83;;;5.10;99.90;;;;;;5077922;28;20477;-81
2021/03/24 04:47:27;;;;;;;38.10;17.60;;;5.00;99.90;;;;;;5077520;28;20426;-81
2021/03/24 04:49:59;;;;;;;36.27;17.23;;;5.00;99.90;;;;;;5077833;28;20398;-81
2021/03/24 04:52:26;;;;;;;43.27;18.33;;;5.00;99.90;;;;;;5078244;28;20891;-81
2021/03/24 04:54:56;;;;;;;26.77;16.57;;;5.10;99.90;;;;;;5082552;28;20816;-81
2021/03/24 04:57:25;;;;;;;39.40;17.10;;;5.00;99.90;;;;;;5082531;28;20410;-81
2021/03/24 04:59:57;;;;;;;32.50;16.77;;;5.00;99.90;;;;;;5088961;28;20795;-78
2021/03/24 05:02:28;;;;;;;35.53;20.30;;;4.90;99.90;;;;;;5091312;28;20383;-79
2021/03/24 05:05:00;;;;;;;23.87;15.00;;;5.00;99.90;;;;;;5091401;28;20437;-79
2021/03/24 05:07:48;;;;;;;33.47;16.97;;;5.20;99.90;;;;;;5092225;28;20425;-78
2021/03/24 05:10:21;;;;;;;33.70;16.57;;;5.30;99.90;;;;;;5089599;28;20417;-79
2021/03/24 05:12:54;;;;;;;31.40;17.13;;;5.30;99.90;;;;;;5088539;28;20368;-78
2021/03/24 05:15:24;;;;;;;38.13;17.00;;;5.30;99.90;;;;;;5089841;28;20430;-79
2021/03/24 05:17:51;;;;;;;35.03;18.17;;;5.20;99.90;;;;;;5087943;28;20368;-80
2021/03/24 05:20:24;;;;;;;27.17;15.00;;;5.00;99.90;;;;;;5081527;28;20395;-80
2021/03/24 05:22:51;;;;;;;30.27;18.70;;;4.80;99.90;;;;;;5082046;28;20429;-81
2021/03/24 05:25:33;;;;;;;29.27;18.20;;;5.00;99.90;;;;;;5084113;28;20412;-80
2021/03/24 05:28:09;;;;;;;27.97;15.53;;;5.00;99.90;;;;;;5090365;28;20439;-81
2021/03/24 05:30:39;;;;;;;36.30;17.90;;;4.90;99.90;;;;;;5081268;28;20550;-81
2021/03/24 05:33:15;;;;;;;37.47;18.30;;;4.90;99.90;;;;;;5081219;28;20398;-81
2021/03/24 05:35:47;;;;;;;37.03;19.23;;;4.80;99.90;;;;;;5081227;28;20747;-80
2021/03/24 05:38:21;;;;;;;39.53;19.10;;;5.00;99.90;;;;;;5080997;28;20399;-81
2021/03/24 05:41:02;;;;;;;38.83;16.43;;;5.00;99.90;;;;;;5081282;28;20393;-81
2021/03/24 05:43:51;;;;;;;33.50;18.17;;;5.20;99.90;;;;;;5080208;28;20444;-81
2021/03/24 05:46:46;;;;;;;32.67;15.83;;;5.10;99.90;;;;;;5080312;28;20488;-80
2021/03/24 05:49:42;;;;;;;37.37;18.87;;;5.10;99.90;;;;;;5079518;28;20401;-80
2021/03/24 05:52:22;;;;;;;26.50;17.07;;;5.00;99.90;;;;;;5080454;28;20390;-80
2021/03/24 05:55:11;;;;;;;34.60;18.50;;;5.10;99.90;;;;;;5080232;28;20425;-81
2021/03/24 05:57:51;;;;;;;44.07;22.67;;;4.90;99.90;;;;;;5080941;28;20900;-80
2021/03/24 06:00:34;;;;;;;30.73;19.57;;;4.90;99.90;;;;;;5080437;28;20856;-81
2021/03/24 06:03:12;;;;;;;28.70;16.80;;;4.90;99.90;;;;;;5078734;28;20406;-80
2021/03/24 06:05:54;;;;;;;36.13;20.37;;;4.80;99.90;;;;;;5079501;28;20440;-80
2021/03/24 06:08:46;;;;;;;43.80;18.27;;;4.80;99.90;;;;;;5079920;28;20813;-80
2021/03/24 06:11:42;;;;;;;36.77;16.40;;;4.90;99.90;;;;;;5079448;28;20409;-81
2021/03/24 06:14:34;;;;;;;35.47;19.10;;;4.90;99.90;;;;;;5080342;28;20425;-81
2021/03/24 06:17:20;;;;;;;41.37;18.67;;;4.90;99.90;;;;;;5080104;28;20381;-80
2021/03/24 06:20:07;;;;;;;48.10;16.70;;;5.20;99.90;;;;;;5080032;28;20903;-81
2021/03/24 06:22:51;;;;;;;34.13;18.70;;;5.10;99.90;;;;;;5079388;28;20405;-81
2021/03/24 06:25:53;;;;;;;39.70;17.07;;;5.10;99.90;;;;;;5079797;28;20558;-80
2021/03/24 06:28:38;;;;;;;31.57;18.47;;;5.40;99.90;;;;;;5079375;28;20372;-80
2021/03/24 06:31:33;;;;;;;32.07;16.87;;;5.40;99.90;;;;;;5080724;28;20365;-79
2021/03/24 06:34:24;;;;;;;35.37;16.90;;;5.40;99.90;;;;;;5080101;28;20380;-80
2021/03/24 06:37:24;;;;;;;31.37;16.53;;;5.70;99.90;;;;;;5075593;28;20572;-82
2021/03/24 06:40:02;;;;;;;30.33;16.63;;;5.70;99.90;;;;;;5059492;28;20423;-81
2021/03/24 06:42:54;;;;;;;42.73;22.43;;;5.50;99.90;;;;;;5064196;28;20466;-81
2021/03/24 06:45:43;;;;;;;35.80;17.90;;;5.60;99.90;;;;;;5065766;28;20807;-81
2021/03/24 06:48:36;;;;;;;31.23;18.97;;;5.50;99.90;;;;;;5066994;28;20411;-81
2021/03/24 06:51:29;;;;;;;34.40;18.37;;;5.60;99.90;;;;;;5060439;28;20434;-81
2021/03/24 06:54:18;;;;;;;34.37;18.07;;;5.70;99.90;;;;;;5061261;28;20396;-80
2021/03/24 06:57:07;;;;;;;44.83;18.33;;;5.90;99.90;;;;;;5071395;28;20397;-80
2021/03/24 07:00:06;;;;;;;38.97;18.33;;;5.90;99.90;;;;;;5063045;28;20499;-78
2021/03/24 07:02:55;;;;;;;34.17;16.47;;;6.10;99.90;;;;;;5063529;28;20853;-80
2021/03/24 07:05:31;;;;;;;29.70;17.33;;;6.10;99.90;;;;;;5059210;28;20413;-80
2021/03/24 07:08:09;;;;;;;37.70;19.20;;;5.90;99.90;;;;;;5058226;28;20515;-80
2021/03/24 07:10:50;;;;;;;32.63;18.10;;;5.90;99.90;;;;;;5059601;28;20418;-80
2021/03/24 07:13:37;;;;;;;32.10;19.03;;;6.00;99.90;;;;;;5066176;28;20410;-79
2021/03/24 07:16:37;;;;;;;38.57;20.37;;;6.10;99.90;;;;;;5064335;28;20435;-80
2021/03/24 07:19:29;;;;;;;39.73;19.60;;;6.20;99.90;;;;;;5059608;28;20461;-80
2021/03/24 07:22:17;;;;;;;39.97;19.40;;;6.50;99.90;;;;;;5060479;28;20534;-81
2021/03/24 07:25:16;;;;;;;35.90;20.27;;;6.40;99.90;;;;;;5059794;28;20439;-81
2021/03/24 07:27:59;;;;;;;31.30;18.60;;;6.30;99.90;;;;;;5068905;28;20425;-80
2021/03/24 07:30:44;;;;;;;43.53;18.97;;;6.30;99.90;;;;;;5071013;28;20884;-81
2021/03/24 07:33:26;;;;;;;30.07;17.40;;;6.50;99.90;;;;;;5078935;28;20484;-81
2021/03/24 07:36:16;;;;;;;40.60;17.77;;;6.60;99.90;;;;;;5079355;28;20402;-81
2021/03/24 07:39:07;;;;;;;33.70;18.50;;;6.80;99.90;;;;;;5090324;28;20432;-81
2021/03/24 07:41:59;;;;;;;39.67;19.63;;;6.80;99.90;;;;;;5081799;28;20394;-81
2021/03/24 07:44:42;;;;;;;36.57;21.17;;;6.90;99.90;;;;;;5080632;28;20449;-81
2021/03/24 07:47:35;;;;;;;28.80;18.37;;;7.00;99.90;;;;;;5063226;28;20449;-81
2021/03/24 07:50:18;;;;;;;39.17;21.57;;;7.10;99.90;;;;;;5060145;28;20387;-80
2021/03/24 07:53:16;;;;;;;24.37;15.43;;;7.30;99.90;;;;;;5059027;28;20373;-81
2021/03/24 07:55:47;;;;;;;36.30;17.40;;;7.40;99.90;;;;;;5071857;28;20421;-81
2021/03/24 07:58:29;;;;;;;31.83;16.33;;;7.50;99.90;;;;;;5065849;28;20414;-81
2021/03/24 08:01:19;;;;;;;27.77;15.50;;;7.30;99.90;;;;;;5060125;28;20398;-81
2021/03/24 08:04:16;;;;;;;23.87;14.37;;;7.60;99.90;;;;;;5064640;28;20465;-81
2021/03/24 08:07:16;;;;;;;33.17;13.30;;;7.60;99.90;;;;;;5079343;28;20427;-81
2021/03/24 08:09:55;;;;;;;30.43;14.60;;;7.50;99.90;;;;;;5068659;28;20430;-81
2021/03/24 08:12:52;;;;;;;25.10;12.87;;;7.60;99.90;;;;;;5071981;28;20418;-81
2021/03/24 08:15:32;;;;;;;22.13;13.27;;;7.50;99.90;;;;;;5063297;28;20377;-81
2021/03/24 08:18:36;;;;;;;21.10;13.57;;;7.60;99.90;;;;;;5064977;28;20444;-79
2021/03/24 08:21:16;;;;;;;22.57;14.17;;;7.50;99.90;;;;;;5059006;28;20436;-81
2021/03/24 08:24:13;;;;;;;26.50;16.90;;;7.90;99.90;;;;;;5057920;28;20450;-81
2021/03/24 08:26:52;;;;;;;26.63;14.43;;;8.00;99.90;;;;;;5058355;28;20414;-80
2021/03/24 08:29:53;;;;;;;24.53;14.37;;;8.10;99.90;;;;;;5060579;28;20403;-80
2021/03/24 08:32:42;;;;;;;21.97;13.13;;;7.90;99.90;;;;;;5070014;28;20425;-80
2021/03/24 08:35:30;;;;;;;30.70;15.47;;;7.90;99.90;;;;;;5070969;28;20429;-81
2021/03/24 08:38:24;;;;;;;30.13;16.17;;;8.30;99.90;;;;;;5068150;28;20428;-81
2021/03/24 08:41:16;;;;;;;22.17;15.07;;;8.30;99.90;;;;;;5079940;28;20417;-81
2021/03/24 08:43:51;;;;;;;27.57;15.77;;;8.40;99.90;;;;;;5075792;28;20571;-81
2021/03/24 08:46:42;;;;;;;27.00;15.17;;;8.60;99.90;;;;;;5069457;28;20437;-81
2021/03/24 08:49:15;;;;;;;32.10;13.90;;;8.60;99.90;;;;;;5069286;28;20802;-81
2021/03/24 08:52:04;;;;;;;24.67;15.27;;;8.90;99.90;;;;;;5069149;28;20871;-81
2021/03/24 08:55:06;;;;;;;24.57;14.47;;;8.50;99.90;;;;;;5080084;28;20445;-81
2021/03/24 08:57:59;;;;;;;18.43;11.67;;;8.80;99.90;;;;;;5071889;28;20434;-81
2021/03/24 09:00:42;;;;;;;31.60;15.20;;;8.70;99.90;;;;;;5074265;28;20425;-80
2021/03/24 09:03:37;;;;;;;24.57;15.53;;;8.70;99.90;;;;;;5074338;28;20425;-80
2021/03/24 09:06:36;;;;;;;25.97;16.13;;;8.80;99.90;;;;;;5070047;28;20452;-82
2021/03/24 09:09:24;;;;;;;26.10;13.57;;;8.80;99.90;;;;;;5071325;28;20445;-80
2021/03/24 09:12:07;;;;;;;19.20;12.33;;;9.40;99.90;;;;;;5069696;28;20422;-81
2021/03/24 09:14:40;;;;;;;24.30;13.90;;;9.80;99.90;;;;;;5048000;28;20420;-81
2021/03/24 09:17:26;;;;;;;20.17;14.93;;;10.00;99.90;;;;;;5071861;28;20465;-82
2021/03/24 09:20:26;;;;;;;28.97;16.77;;;10.30;99.90;;;;;;5069505;28;20423;-81
2021/03/24 09:23:32;;;;;;;23.17;14.10;;;10.20;99.90;;;;;;5074170;28;20430;-82
2021/03/24 09:26:38;;;;;;;27.77;15.53;;;10.50;99.90;;;;;;5058163;28;20510;-82
2021/03/24 09:29:25;;;;;;;27.97;14.93;;;10.70;99.90;;;;;;5074313;28;20424;-81
2021/03/24 09:32:08;;;;;;;24.80;15.00;;;10.80;99.90;;;;;;5065358;28;20421;-81
2021/03/24 09:34:59;;;;;;;30.30;16.40;;;10.80;99.90;;;;;;5063215;28;20425;-81
2021/03/24 09:37:35;;;;;;;27.57;15.80;;;11.20;99.90;;;;;;5063286;28;20426;-82
2021/03/24 09:40:07;;;;;;;31.40;15.20;;;11.70;99.90;;;;;;5076205;28;20448;-80
2021/03/24 09:42:45;;;;;;;25.03;17.17;;;11.40;99.90;;;;;;5036137;28;20584;-81
2021/03/24 09:45:24;;;;;;;26.03;12.87;;;11.10;99.90;;;;;;5069890;28;20536;-79
2021/03/24 09:48:06;;;;;;;22.77;14.93;;;10.90;99.90;;;;;;5077785;28;20418;-81
2021/03/24 09:50:57;;;;;;;24.90;15.77;;;11.20;99.90;;;;;;5050881;28;20496;-81
2021/03/24 09:53:27;;;;;;;25.13;15.30;;;11.80;99.90;;;;;;5053825;28;20435;-80
2021/03/24 09:56:04;;;;;;;25.77;15.23;;;12.60;99.90;;;;;;5054981;28;20448;-81
2021/03/24 09:58:41;;;;;;;23.37;14.10;;;11.80;99.90;;;;;;5027164;28;20425;-81
2021/03/24 10:01:18;;;;;;;27.27;15.10;;;11.30;99.90;;;;;;5051020;28;20430;-81
2021/03/24 10:03:53;;;;;;;21.53;14.30;;;11.30;99.90;;;;;;5062105;28;20480;-81
2021/03/24 10:06:46;;;;;;;30.57;15.00;;;11.80;99.90;;;;;;5061287;28;20536;-81
2021/03/24 10:09:26;;;;;;;30.10;17.10;;;11.60;99.90;;;;;;5059337;28;20426;-81
2021/03/24 10:12:16;;;;;;;25.53;14.90;;;12.80;99.90;;;;;;5070621;28;20433;-80
2021/03/24 10:15:02;;;;;;;27.73;15.57;;;13.00;99.90;;;;;;5061681;28;20406;-81
2021/03/24 10:17:32;;;;;;;23.20;14.73;;;13.30;99.90;;;;;;5060912;28;20434;-82
2021/03/24 10:20:09;;;;;;;27.90;16.27;;;14.20;99.90;;;;;;5060699;28;20796;-81
2021/03/24 10:22:41;;;;;;;23.17;14.50;;;13.20;99.90;;;;;;5065536;28;20482;-81
2021/03/24 10:25:15;;;;;;;29.17;17.10;;;13.10;99.90;;;;;;5065092;28;20450;-81
2021/03/24 10:27:46;;;;;;;27.50;17.53;;;12.60;99.90;;;;;;5067997;28;20782;-81
2021/03/24 10:30:29;;;;;;;24.63;17.00;;;12.70;99.90;;;;;;5070678;28;20432;-82
2021/03/24 10:33:09;;;;;;;27.60;16.17;;;12.50;99.90;;;;;;5061505;28;20493;-81
2021/03/24 10:35:57;;;;;;;26.47;17.20;;;13.10;99.90;;;;;;5073923;28;20446;-81
2021/03/24 10:38:29;;;;;;;24.57;15.40;;;14.10;99.90;;;;;;5079858;28;20417;-81
2021/03/24 10:41:18;;;;;;;32.03;15.50;;;13.70;99.90;;;;;;5079307;28;20437;-81
2021/03/24 10:43:52;;;;;;;27.23;17.33;;;14.50;99.90;;;;;;5072599;28;20939;-81
2021/03/24 10:46:54;;;;;;;24.37;14.77;;;15.30;99.90;;;;;;5070101;28;20418;-81
2021/03/24 10:49:29;;;;;;;28.40;16.77;;;14.00;99.90;;;;;;5071369;28;20769;-81
2021/03/24 10:52:16;;;;;;;24.53;17.73;;;13.80;99.90;;;;;;5064464;28;20420;-82
2021/03/24 10:54:45;;;;;;;26.27;16.10;;;14.90;99.90;;;;;;5062880;28;20422;-81
2021/03/24 10:57:34;;;;;;;23.77;17.40;;;14.30;99.90;;;;;;5060767;28;20882;-81
2021/03/24 11:00:15;;;;;;;21.07;15.00;;;14.70;99.90;;;;;;5046463;28;20426;-82
2021/03/24 11:03:16;;;;;;;27.07;16.03;;;13.10;99.90;;;;;;5060267;28;20426;-79
2021/03/24 11:05:55;;;;;;;26.97;16.20;;;14.50;99.90;;;;;;5064927;28;20501;-82
2021/03/24 11:08:46;;;;;;;27.10;16.50;;;15.80;98.80;;;;;;5070439;28;20437;-79
2021/03/24 11:11:19;;;;;;;26.10;15.90;;;16.40;97.10;;;;;;5071962;28;20508;-82
2021/03/24 11:13:59;;;;;;;28.80;16.00;;;16.80;95.50;;;;;;5064826;28;20473;-82
2021/03/24 11:16:46;;;;;;;21.43;15.10;;;17.50;91.70;;;;;;5064453;28;20422;-80
2021/03/24 11:19:22;;;;;;;25.40;16.23;;;17.20;91.20;;;;;;5075842;28;21056;-80
2021/03/24 11:22:16;;;;;;;22.37;16.40;;;17.20;90.70;;;;;;5060149;28;20962;-81
2021/03/24 11:24:53;;;;;;;20.73;16.10;;;17.40;89.70;;;;;;5069946;28;20449;-81
2021/03/24 11:27:24;;;;;;;22.13;16.67;;;16.10;91.40;;;;;;5072172;28;20428;-81
2021/03/24 11:30:21;;;;;;;23.33;15.90;;;17.30;90.00;;;;;;5080239;28;20421;-81
2021/03/24 11:33:00;;;;;;;23.40;17.70;;;17.10;90.00;;;;;;5080698;28;20429;-79
2021/03/24 11:35:44;;;;;;;21.73;15.40;;;16.80;87.80;;;;;;5072758;28;20517;-81
2021/03/24 11:38:33;;;;;;;24.67;15.77;;;16.70;90.80;;;;;;5059616;28;20426;-81
2021/03/24 11:41:16;;;;;;;21.43;17.23;;;15.80;90.10;;;;;;5058579;28;20422;-81
2021/03/24 11:43:44;;;;;;;26.30;17.47;;;16.30;90.60;;;;;;5076279;28;20476;-81
2021/03/24 11:46:25;;;;;;;21.07;15.40;;;16.10;90.40;;;;;;5060373;28;20417;-81
2021/03/24 11:49:11;;;;;;;23.20;17.50;;;17.00;90.50;;;;;;5075762;28;20414;-81
2021/03/24 11:52:09;;;;;;;22.60;15.10;;;18.30;85.50;;;;;;5069777;28;20421;-82
2021/03/24 11:55:02;;;;;;;24.87;17.00;;;19.00;83.50;;;;;;5064567;28;20791;-83
2021/03/24 11:57:46;;;;;;;20.20;16.77;;;17.40;78.70;;;;;;5047885;28;20425;-82
2021/03/24 12:00:31;;;;;;;19.37;15.90;;;16.10;84.60;;;;;;5063754;28;20891;-82
2021/03/24 12:03:30;;;;;;;23.17;16.27;;;17.50;84.00;;;;;;5066044;28;20432;-82
2021/03/24 12:06:02;;;;;;;22.07;17.37;;;17.60;83.90;;;;;;5073235;28;20932;-82
2021/03/24 12:08:49;;;;;;;23.77;16.70;;;17.70;85.90;;;;;;5069428;28;20465;-82
2021/03/24 12:11:33;;;;;;;19.40;16.07;;;19.20;80.90;;;;;;5061195;28;20425;-82
2021/03/24 12:14:20;;;;;;;21.53;16.00;;;19.50;78.50;;;;;;5056971;28;20425;-82
2021/03/24 12:16:50;;;;;;;19.63;17.40;;;19.60;76.30;;;;;;5049743;28;20502;-82
2021/03/24 12:19:42;;;;;;;25.13;17.63;;;19.50;77.20;;;;;;5060877;28;20436;-82
2021/03/24 12:22:28;;;;;;;24.43;17.70;;;19.80;75.30;;;;;;5075002;28;20406;-81
2021/03/24 12:25:19;;;;;;;28.63;19.27;;;16.90;77.50;;;;;;5072992;28;20457;-82
2021/03/24 12:27:49;;;;;;;17.23;15.30;;;17.00;81.60;;;;;;5070434;28;20520;-82
2021/03/24 12:30:24;;;;;;;26.97;17.90;;;17.40;81.60;;;;;;5069685;28;20513;-82
2021/03/24 12:32:51;;;;;;;26.57;18.40;;;18.10;83.00;;;;;;5066513;28;20931;-82
2021/03/24 12:35:22;;;;;;;28.10;19.47;;;17.30;79.60;;;;;;5060736;28;20724;-81
2021/03/24 12:37:55;;;;;;;21.67;16.20;;;15.90;82.80;;;;;;5077569;28;20411;-81
2021/03/24 12:40:23;;;;;;;22.40;18.97;;;17.30;83.30;;;;;;5070931;28;20507;-81
2021/03/24 12:42:51;;;;;;;20.40;16.20;;;16.60;83.10;;;;;;5057771;28;20511;-81
2021/03/24 12:45:30;;;;;;;19.73;15.67;;;17.90;82.40;;;;;;5058114;28;20446;-81
2021/03/24 12:48:25;;;;;;;24.83;18.07;;;17.00;81.30;;;;;;5066215;28;20500;-81
2021/03/24 12:51:13;;;;;;;24.50;16.90;;;16.30;83.30;;;;;;5062392;28;20462;-82
2021/03/24 12:53:45;;;;;;;23.73;17.90;;;17.40;83.90;;;;;;5059452;28;20923;-82
2021/03/24 12:56:51;;;;;;;22.20;17.37;;;18.30;80.90;;;;;;5062746;28;20425;-82
2021/03/24 12:59:38;;;;;;;22.27;16.70;;;19.00;78.10;;;;;;5075231;28;20430;-83
2021/03/24 13:02:36;;;;;;;22.70;16.37;;;19.00;77.30;;;;;;5055817;28;20430;-79
2021/03/24 13:05:18;;;;;;;21.63;16.93;;;19.20;78.10;;;;;;5078506;28;20809;-79
2021/03/24 13:08:02;;;;;;;20.57;16.40;;;20.10;70.60;;;;;;5071821;28;20495;-82
2021/03/24 13:10:51;;;;;;;21.00;16.00;;;18.80;74.70;;;;;;5064887;28;20418;-79
2021/03/24 13:13:26;;;;;;;22.90;18.07;;;18.60;76.80;;;;;;5061538;28;20482;-83
2021/03/24 13:16:00;;;;;;;18.63;15.60;;;20.30;73.10;;;;;;5062470;28;20485;-82
2021/03/24 13:18:35;;;;;;;22.27;16.40;;;19.60;70.20;;;;;;5061244;28;20448;-82
2021/03/24 13:21:31;;;;;;;19.03;16.73;;;17.90;72.00;;;;;;5061949;28;20787;-82
2021/03/24 13:24:30;;;;;;;17.63;15.57;;;18.50;74.40;;;;;;5047843;28;20438;-82
2021/03/24 13:27:05;;;;;;;22.27;16.93;;;18.80;74.00;;;;;;5045819;28;20407;-82
2021/03/24 13:29:46;;;;;;;25.17;18.10;;;17.80;74.20;;;;;;5061108;28;20398;-82
2021/03/24 13:32:30;;;;;;;22.90;17.50;;;18.80;76.40;;;;;;5061509;28;20475;-82